createdAt,value
2018-07-28T00:00:10.038Z,4.57
2018-07-28T00:02:39.084Z,7.60
2018-07-28T00:05:09.248Z,6.00
2018-07-28T00:07:38.490Z,4.87
2018-07-28T00:10:11.050Z,5.40
2018-07-28T00:12:40.239Z,4.67
2018-07-28T00:15:11.757Z,6.70
2018-07-28T00:17:41.975Z,4.57
2018-07-28T00:20:12.297Z,6.70
2018-07-28T00:22:41.544Z,5.80
2018-07-28T00:25:11.775Z,4.73
2018-07-28T00:27:40.963Z,5.60
2018-07-28T00:30:12.060Z,6.30
2018-07-28T00:32:41.404Z,4.83
2018-07-28T00:35:10.298Z,4.70
2018-07-28T00:37:40.344Z,4.40
2018-07-28T00:40:09.694Z,5.20
2018-07-28T00:42:39.165Z,4.53
2018-07-28T00:45:08.851Z,7.50
2018-07-28T00:47:37.517Z,4.47
2018-07-28T00:50:07.396Z,5.37
2018-07-28T00:52:36.431Z,6.93
2018-07-28T00:55:05.839Z,4.97
2018-07-28T00:57:34.465Z,5.00
2018-07-28T01:00:03.672Z,5.10
2018-07-28T01:02:32.757Z,4.67
2018-07-28T01:05:01.998Z,7.27
2018-07-28T01:07:31.263Z,4.67
2018-07-28T01:10:00.323Z,3.97
2018-07-28T01:12:29.434Z,4.90
2018-07-28T01:14:58.569Z,6.20
2018-07-28T01:17:27.759Z,5.10
2018-07-28T01:19:57.042Z,5.27
2018-07-28T01:22:31.855Z,6.13
2018-07-28T01:25:00.941Z,5.37
2018-07-28T01:27:30.403Z,5.97
2018-07-28T01:29:59.279Z,7.90
2018-07-28T01:32:30.360Z,5.60
2018-07-28T01:34:59.363Z,5.20
2018-07-28T01:37:28.470Z,4.30
2018-07-28T01:39:57.467Z,5.07
2018-07-28T01:42:30.637Z,5.13
2018-07-28T01:44:59.501Z,9.13
2018-07-28T01:47:28.510Z,4.10
2018-07-28T01:49:57.624Z,5.00
2018-07-28T01:52:26.911Z,4.00
2018-07-28T01:54:56.465Z,4.03
2018-07-28T01:57:25.383Z,11.27
2018-07-28T01:59:54.214Z,4.20
2018-07-28T02:02:23.020Z,5.37
2018-07-28T02:04:52.200Z,5.97
2018-07-28T02:07:21.162Z,5.07
2018-07-28T02:09:50.146Z,6.97
2018-07-28T02:12:19.051Z,5.17
2018-07-28T02:14:48.033Z,5.30
2018-07-28T02:17:17.037Z,5.10
2018-07-28T02:19:46.010Z,5.27
2018-07-28T02:22:15.244Z,6.80
2018-07-28T02:24:44.250Z,4.57
2018-07-28T02:27:13.378Z,7.03
2018-07-28T02:29:42.299Z,5.97
2018-07-28T02:32:11.099Z,9.37
2018-07-28T02:34:43.080Z,5.43
2018-07-28T02:37:12.165Z,5.70
2018-07-28T02:39:40.938Z,6.73
2018-07-28T02:42:09.939Z,4.93
2018-07-28T02:44:38.836Z,8.87
2018-07-28T02:47:07.965Z,7.60
2018-07-28T02:49:36.932Z,11.07
2018-07-28T02:52:05.990Z,5.20
2018-07-28T02:54:34.907Z,5.47
2018-07-28T02:57:03.801Z,7.93
2018-07-28T02:59:32.644Z,8.97
2018-07-28T03:02:00.961Z,6.40
2018-07-28T03:04:29.680Z,5.13
2018-07-28T03:06:58.584Z,5.40
2018-07-28T03:09:27.425Z,6.00
2018-07-28T03:11:56.430Z,5.30
2018-07-28T03:14:30.791Z,5.53
2018-07-28T03:16:59.673Z,5.53
2018-07-28T03:19:28.533Z,5.03
2018-07-28T03:21:57.518Z,5.10
2018-07-28T03:24:26.658Z,5.43
2018-07-28T03:26:55.756Z,5.23
2018-07-28T03:29:24.609Z,5.00
2018-07-28T03:31:53.630Z,6.00
2018-07-28T03:34:22.511Z,6.33
2018-07-28T03:36:51.415Z,5.57
2018-07-28T03:39:20.377Z,8.13
2018-07-28T03:41:49.249Z,6.47
2018-07-28T03:44:18.265Z,5.23
2018-07-28T03:46:47.051Z,5.70
2018-07-28T03:49:16.196Z,6.53
2018-07-28T03:51:45.118Z,12.33
2018-07-28T03:54:20.407Z,5.20
2018-07-28T03:56:49.515Z,5.17
2018-07-28T03:59:18.364Z,4.60
2018-07-28T04:01:47.273Z,5.40
2018-07-28T04:04:16.376Z,9.73
2018-07-28T04:06:45.164Z,7.80
2018-07-28T04:09:14.023Z,5.43
2018-07-28T04:11:43.136Z,7.47
2018-07-28T04:14:12.110Z,4.77
2018-07-28T04:16:40.896Z,6.07
2018-07-28T04:19:09.999Z,5.57
2018-07-28T04:21:38.908Z,6.20
2018-07-28T04:24:07.816Z,5.33
2018-07-28T04:26:39.019Z,5.33
2018-07-28T04:29:07.849Z,5.53
2018-07-28T04:31:36.961Z,5.83
2018-07-28T04:34:06.042Z,6.33
2018-07-28T04:36:34.910Z,6.60
2018-07-28T04:39:04.956Z,5.30
2018-07-28T04:41:34.037Z,7.77
2018-07-28T04:44:02.986Z,6.60
2018-07-28T04:46:32.032Z,4.97
2018-07-28T04:49:01.044Z,4.97
2018-07-28T04:51:30.116Z,5.67
2018-07-28T04:53:58.997Z,5.03
2018-07-28T04:56:27.924Z,5.13
2018-07-28T04:58:57.017Z,6.20
2018-07-28T05:01:26.020Z,5.00
2018-07-28T05:03:55.209Z,5.53
2018-07-28T05:06:24.509Z,5.60
2018-07-28T05:08:53.495Z,5.93
2018-07-28T05:11:22.707Z,5.10
2018-07-28T05:13:52.197Z,5.47
2018-07-28T05:16:21.393Z,6.37
2018-07-28T05:18:50.317Z,6.57
2018-07-28T05:21:19.356Z,5.80
2018-07-28T05:23:48.483Z,5.90
2018-07-28T05:26:17.361Z,7.20
2018-07-28T05:28:48.470Z,7.50
2018-07-28T05:31:17.595Z,7.37
2018-07-28T05:33:46.493Z,5.13
2018-07-28T05:36:19.232Z,6.37
2018-07-28T05:38:48.177Z,5.87
2018-07-28T05:41:17.194Z,5.73
2018-07-28T05:43:46.476Z,7.00
2018-07-28T05:46:15.146Z,5.87
2018-07-28T05:48:43.950Z,5.77
2018-07-28T05:51:12.884Z,5.03
2018-07-28T05:53:41.907Z,5.67
2018-07-28T05:56:12.052Z,5.70
2018-07-28T05:58:42.058Z,4.80
2018-07-28T06:01:11.163Z,4.80
2018-07-28T06:03:40.355Z,5.22
2018-07-28T06:06:09.743Z,5.92
2018-07-28T06:08:38.605Z,5.95
2018-07-28T06:11:07.599Z,6.70
2018-07-28T06:13:37.736Z,6.17
2018-07-28T06:16:07.024Z,5.83
2018-07-28T06:18:35.873Z,8.80
2018-07-28T06:21:04.906Z,5.55
2018-07-28T06:23:46.951Z,5.33
2018-07-28T06:26:15.733Z,5.12
2018-07-28T06:28:44.214Z,5.35
2018-07-28T06:31:13.324Z,5.12
2018-07-28T06:33:42.329Z,4.72
2018-07-28T06:36:11.305Z,5.85
2018-07-28T06:38:40.393Z,5.05
2018-07-28T06:41:08.681Z,5.72
2018-07-28T06:43:37.559Z,4.97
2018-07-28T06:46:13.822Z,5.10
2018-07-28T06:48:42.091Z,5.87
2018-07-28T06:51:11.209Z,7.22
2018-07-28T06:53:47.698Z,4.65
2018-07-28T06:56:19.187Z,5.50
2018-07-28T06:58:48.173Z,5.97
2018-07-28T07:01:17.160Z,5.83
2018-07-28T07:03:46.390Z,5.17
2018-07-28T07:06:16.382Z,4.60
2018-07-28T07:08:45.484Z,4.90
2018-07-28T07:11:14.337Z,4.75
2018-07-28T07:13:55.369Z,5.37
2018-07-28T07:16:24.286Z,5.17
2018-07-28T07:18:53.380Z,4.85
2018-07-28T07:21:22.580Z,7.58
2018-07-28T07:23:54.981Z,4.87
2018-07-28T07:26:23.950Z,7.30
2018-07-28T07:28:59.251Z,4.78
2018-07-28T07:31:28.181Z,4.78
2018-07-28T07:33:57.113Z,4.28
2018-07-28T07:36:25.911Z,4.78
2018-07-28T07:38:54.938Z,5.50
2018-07-28T07:41:26.076Z,5.20
2018-07-28T07:43:55.307Z,4.97
2018-07-28T07:46:30.105Z,4.87
2018-07-28T07:48:58.987Z,5.55
2018-07-28T07:51:28.271Z,5.37
2018-07-28T07:53:57.537Z,7.33
2018-07-28T07:56:26.579Z,7.45
2018-07-28T07:58:56.024Z,6.35
2018-07-28T08:01:25.305Z,5.70
2018-07-28T08:03:55.508Z,5.00
2018-07-28T08:06:26.557Z,5.85
2018-07-28T08:08:57.136Z,6.00
2018-07-28T08:11:26.320Z,5.25
2018-07-28T08:13:55.290Z,6.03
2018-07-28T08:16:24.729Z,9.15
2018-07-28T08:18:53.748Z,5.60
2018-07-28T08:21:22.785Z,5.55
2018-07-28T08:23:51.825Z,4.87
2018-07-28T08:26:26.917Z,5.53
2018-07-28T08:28:55.967Z,4.75
2018-07-28T08:31:29.539Z,5.62
2018-07-28T08:33:58.569Z,6.92
2018-07-28T08:36:27.417Z,8.15
2018-07-28T08:38:56.354Z,4.85
2018-07-28T08:41:25.522Z,6.47
2018-07-28T08:43:54.384Z,5.45
2018-07-28T08:46:22.856Z,4.90
2018-07-28T08:48:52.903Z,5.60
2018-07-28T08:51:21.783Z,5.83
2018-07-28T08:53:50.996Z,5.00
2018-07-28T08:56:20.144Z,5.35
2018-07-28T08:58:48.565Z,4.95
2018-07-28T09:01:17.734Z,7.75
2018-07-28T09:03:46.601Z,5.80
2018-07-28T09:06:16.851Z,5.37
2018-07-28T09:08:45.656Z,5.92
2018-07-28T09:11:14.506Z,7.05
2018-07-28T09:13:44.636Z,4.83
2018-07-28T09:16:13.657Z,5.25
2018-07-28T09:18:42.142Z,4.60
2018-07-28T09:21:11.207Z,6.15
2018-07-28T09:23:41.580Z,4.15
2018-07-28T09:26:10.550Z,4.83
2018-07-28T09:28:39.121Z,4.90
2018-07-28T09:31:08.356Z,4.72
2018-07-28T09:33:37.402Z,5.12
2018-07-28T09:36:06.528Z,6.53
2018-07-28T09:38:35.509Z,5.37
2018-07-28T09:41:14.698Z,4.60
2018-07-28T09:43:44.495Z,5.67
2018-07-28T09:46:13.599Z,6.37
2018-07-28T09:48:42.449Z,8.15
2018-07-28T09:51:17.839Z,4.95
2018-07-28T09:53:46.567Z,5.87
2018-07-28T09:56:15.509Z,4.97
2018-07-28T09:58:44.461Z,5.20
2018-07-28T10:01:18.468Z,6.62
2018-07-28T10:03:48.275Z,5.30
2018-07-28T10:06:17.277Z,5.72
2018-07-28T10:08:46.508Z,4.42
2018-07-28T10:11:15.341Z,5.65
2018-07-28T10:13:44.235Z,4.75
2018-07-28T10:16:13.259Z,4.95
2018-07-28T10:18:42.561Z,4.97
2018-07-28T10:21:11.619Z,5.62
2018-07-28T10:23:40.646Z,5.20
2018-07-28T10:26:10.362Z,4.50
2018-07-28T10:28:39.208Z,6.37
2018-07-28T10:31:08.414Z,5.75
2018-07-28T10:33:37.297Z,5.53
2018-07-28T10:36:06.928Z,5.97
2018-07-28T10:38:42.093Z,4.92
2018-07-28T10:41:15.389Z,5.17
2018-07-28T10:43:48.205Z,5.17
2018-07-28T10:46:21.933Z,4.90
2018-07-28T10:48:52.150Z,4.50
2018-07-28T10:51:21.336Z,5.47
2018-07-28T10:53:53.761Z,4.92
2018-07-28T10:56:23.026Z,5.05
2018-07-28T10:58:52.052Z,6.30
2018-07-28T11:01:20.466Z,5.90
2018-07-28T11:03:49.224Z,5.20
2018-07-28T11:06:18.494Z,4.85
2018-07-28T11:08:47.411Z,4.55
2018-07-28T11:11:16.589Z,5.53
2018-07-28T11:13:49.393Z,5.22
2018-07-28T11:16:18.261Z,5.47
2018-07-28T11:18:47.336Z,6.00
2018-07-28T11:21:17.487Z,5.15
2018-07-28T11:24:00.612Z,7.58
2018-07-28T11:26:29.808Z,6.30
2018-07-28T11:28:58.770Z,5.50
2018-07-28T11:32:40.705Z,5.58
2018-07-28T11:35:20.521Z,5.30
2018-07-28T11:38:09.822Z,5.95
2018-07-28T11:40:49.975Z,5.70
2018-07-28T11:43:29.825Z,9.38
2018-07-28T11:45:59.004Z,6.60
2018-07-28T11:48:30.938Z,8.60
2018-07-28T11:50:59.987Z,6.55
2018-07-28T11:53:28.944Z,5.72
2018-07-28T11:56:02.590Z,7.22
2018-07-28T11:58:31.473Z,5.85
2018-07-28T12:01:00.543Z,6.08
2018-07-28T12:03:29.759Z,7.90
2018-07-28T12:05:58.661Z,8.78
2018-07-28T12:08:29.074Z,6.90
2018-07-28T12:10:58.242Z,7.12
2018-07-28T12:13:27.232Z,9.25
2018-07-28T12:15:56.276Z,10.88
2018-07-28T12:18:25.251Z,7.95
2018-07-28T12:20:56.227Z,9.58
2018-07-28T12:23:25.250Z,6.72
2018-07-28T12:25:55.492Z,9.05
2018-07-28T12:28:29.814Z,5.47
2018-07-28T12:31:00.153Z,8.10
2018-07-28T12:33:29.381Z,9.50
2018-07-28T12:35:58.295Z,7.22
2018-07-28T12:38:27.321Z,8.45
2018-07-28T12:40:57.586Z,8.45
2018-07-28T12:43:28.100Z,6.58
2018-07-28T12:45:56.936Z,8.40
2018-07-28T12:48:30.072Z,5.87
2018-07-28T12:51:04.142Z,6.40
2018-07-28T12:53:44.148Z,6.50
2018-07-28T12:56:13.290Z,5.08
2018-07-28T12:58:42.399Z,5.58
2018-07-28T13:01:11.512Z,4.83
2018-07-28T13:03:40.395Z,6.67
2018-07-28T13:06:09.283Z,6.28
2018-07-28T13:08:38.355Z,5.87
2018-07-28T13:11:07.330Z,7.17
2018-07-28T13:13:37.924Z,7.47
2018-07-28T13:16:07.454Z,4.22
2018-07-28T13:18:45.780Z,5.08
2018-07-28T13:21:14.773Z,5.60
2018-07-28T13:23:50.761Z,6.10
2018-07-28T13:26:19.659Z,5.40
2018-07-28T13:28:48.482Z,3.72
2018-07-28T13:31:17.367Z,8.25
2018-07-28T13:33:46.532Z,5.25
2018-07-28T13:36:15.538Z,4.05
2018-07-28T13:38:44.564Z,4.87
2018-07-28T13:41:13.569Z,4.08
2018-07-28T13:43:42.452Z,3.65
2018-07-28T13:46:10.813Z,4.40
2018-07-28T13:48:39.562Z,3.77
2018-07-28T13:51:08.672Z,6.28
2018-07-28T13:53:37.560Z,4.05
2018-07-28T13:56:06.553Z,3.75
2018-07-28T13:58:48.097Z,4.45
2018-07-28T14:01:17.036Z,4.20
2018-07-28T14:03:46.096Z,4.17
2018-07-28T14:06:15.156Z,3.77
2018-07-28T14:08:44.128Z,3.80
2018-07-28T14:11:13.118Z,4.35
2018-07-28T14:13:42.021Z,5.15
2018-07-28T14:16:15.132Z,3.70
2018-07-28T14:18:44.559Z,5.03
2018-07-28T14:21:13.531Z,4.05
2018-07-28T14:23:47.737Z,3.92
2018-07-28T14:26:16.674Z,3.20
2018-07-28T14:28:45.745Z,3.98
2018-07-28T15:18:44.655Z,3.20
2018-07-28T15:21:13.219Z,2.92
2018-07-28T15:23:41.926Z,3.40
2018-07-28T15:26:10.943Z,3.15
2018-07-28T15:36:23.707Z,2.72
2018-07-28T15:41:30.892Z,3.52
2018-07-28T15:44:04.859Z,3.12
2018-07-28T15:46:41.054Z,3.02
2018-07-28T15:49:16.017Z,2.20
2018-07-28T15:51:54.003Z,2.83
2018-07-28T15:54:27.333Z,3.08
2018-07-28T15:57:04.084Z,2.40
2018-07-28T15:59:34.700Z,2.60
2018-07-28T16:02:06.849Z,2.58
2018-07-28T16:04:42.553Z,2.65
2018-07-28T16:07:11.453Z,2.72
2018-07-28T16:09:41.877Z,3.12
2018-07-28T16:12:17.417Z,2.50
2018-07-28T16:14:49.679Z,2.30
2018-07-28T16:17:22.694Z,2.45
2018-07-28T16:19:54.438Z,2.85
2018-07-28T16:22:25.377Z,2.72
2018-07-28T16:25:00.493Z,2.60
2018-07-28T16:27:34.325Z,1.72
2018-07-28T16:30:06.619Z,11.00
2018-07-28T16:32:38.117Z,5.22
2018-07-28T16:35:07.845Z,7.42
2018-07-28T16:57:55.645Z,2.25
2018-07-28T17:00:25.428Z,2.08
2018-07-28T17:02:54.545Z,2.52
2018-07-28T17:05:23.261Z,4.42
2018-07-28T17:07:52.202Z,4.28
2018-07-28T17:10:20.930Z,2.75
2018-07-28T17:12:49.791Z,2.58
2018-07-28T17:15:18.432Z,3.75
2018-07-28T17:17:48.071Z,2.67
2018-07-28T17:20:16.838Z,2.15
2018-07-28T17:22:45.561Z,2.00
2018-07-28T17:25:14.164Z,2.67
2018-07-28T17:27:42.852Z,3.58
2018-07-28T17:30:11.622Z,2.20
2018-07-28T17:32:40.338Z,2.17
2018-07-28T17:35:08.941Z,2.00
2018-07-28T17:37:37.803Z,2.30
2018-07-28T17:40:07.581Z,1.93
2018-07-28T17:42:36.332Z,2.07
2018-07-28T17:45:06.227Z,1.90
2018-07-28T17:47:36.251Z,2.17
2018-07-28T17:50:06.441Z,2.20
2018-07-28T17:52:35.242Z,1.73
2018-07-28T17:55:05.397Z,2.33
2018-07-28T17:57:34.390Z,1.97
2018-07-28T18:00:03.465Z,1.67
2018-07-28T18:02:32.502Z,4.73
2018-07-28T18:05:06.322Z,1.40
2018-07-28T18:07:35.099Z,2.17
2018-07-28T18:10:03.965Z,2.10
2018-07-28T18:12:33.062Z,1.80
2018-07-28T18:15:01.727Z,1.60
2018-07-28T18:17:30.780Z,1.60
2018-07-28T18:19:59.440Z,3.07
2018-07-28T18:22:28.063Z,2.27
2018-07-28T18:24:56.741Z,3.57
2018-07-28T18:27:24.986Z,2.00
2018-07-28T18:29:53.638Z,1.70
2018-07-28T18:32:23.683Z,2.80
2018-07-28T18:34:53.068Z,2.20
2018-07-28T18:37:22.812Z,1.87
2018-07-28T18:39:51.048Z,3.57
2018-07-28T18:42:19.714Z,1.67
2018-07-28T18:44:48.435Z,2.00
2018-07-28T18:47:17.391Z,2.03
2018-07-28T18:49:46.096Z,2.27
2018-07-28T18:52:15.093Z,3.20
2018-07-28T18:54:47.724Z,2.40
2018-07-28T18:57:18.562Z,5.10
2018-07-28T18:59:47.394Z,2.87
2018-07-28T19:02:16.589Z,2.20
2018-07-28T19:04:46.853Z,2.13
2018-07-28T19:07:15.926Z,2.37
2018-07-28T19:09:54.079Z,1.83
2018-07-28T19:12:28.096Z,1.77
2018-07-28T19:14:59.342Z,1.97
2018-07-28T19:17:33.147Z,2.63
2018-07-28T19:20:02.065Z,2.10
2018-07-28T19:22:36.233Z,2.13
2018-07-28T19:25:05.478Z,2.00
2018-07-28T19:27:34.523Z,2.43
2018-07-28T19:30:04.613Z,2.30
2018-07-28T19:32:33.659Z,2.83
2018-07-28T19:35:02.642Z,2.20
2018-07-28T19:37:31.675Z,2.10
2018-07-28T19:40:00.525Z,3.07
2018-07-28T19:42:34.544Z,2.30
2018-07-28T19:45:03.802Z,2.70
2018-07-28T19:47:32.819Z,2.30
2018-07-28T19:50:01.690Z,3.07
2018-07-28T19:52:30.691Z,4.17
2018-07-28T19:54:59.923Z,2.67
2018-07-28T19:57:30.363Z,3.53
2018-07-28T19:59:58.978Z,2.20
2018-07-28T20:02:27.806Z,4.13
2018-07-28T20:04:57.007Z,3.10
2018-07-28T20:07:25.837Z,2.77
2018-07-28T20:09:54.600Z,3.50
2018-07-28T20:12:23.486Z,2.40
2018-07-28T20:14:52.172Z,2.47
2018-07-28T20:17:21.017Z,2.37
2018-07-28T20:19:50.479Z,2.40
2018-07-28T20:22:19.132Z,4.27
2018-07-28T20:24:48.914Z,2.80
2018-07-28T20:27:17.702Z,2.50
2018-07-28T20:29:46.310Z,2.67
2018-07-28T20:32:15.276Z,2.70
2018-07-28T20:34:44.084Z,3.23
2018-07-28T20:37:14.111Z,3.47
2018-07-28T20:39:42.816Z,2.83
2018-07-28T20:42:11.455Z,2.40
2018-07-28T20:44:40.081Z,2.20
2018-07-28T20:47:09.757Z,2.67
2018-07-28T20:49:39.121Z,2.70
2018-07-28T20:52:08.391Z,2.50
2018-07-28T20:54:37.248Z,2.70
2018-07-28T20:57:11.349Z,2.90
2018-07-28T20:59:40.083Z,3.23
2018-07-28T21:02:08.770Z,3.67
2018-07-28T21:04:37.619Z,2.73
2018-07-28T21:07:06.500Z,2.90
2018-07-28T21:09:35.188Z,3.97
2018-07-28T21:12:03.915Z,3.03
2018-07-28T21:14:32.801Z,3.00
2018-07-28T21:17:01.535Z,2.83
2018-07-28T21:19:30.162Z,2.83
2018-07-28T21:21:59.003Z,2.67
2018-07-28T21:24:27.635Z,5.87
2018-07-28T21:26:56.516Z,2.93
2018-07-28T21:29:25.397Z,2.83
2018-07-28T21:31:56.406Z,3.10
2018-07-28T21:34:25.058Z,3.10
2018-07-28T21:36:53.969Z,3.73
2018-07-28T21:39:22.810Z,2.43
2018-07-28T21:41:51.554Z,3.07
2018-07-28T21:44:20.198Z,3.07
2018-07-28T21:46:49.658Z,3.10
2018-07-28T21:49:18.465Z,3.30
2018-07-28T21:51:47.306Z,2.63
2018-07-28T21:54:15.985Z,2.97
2018-07-28T21:56:44.836Z,2.97
2018-07-28T21:59:13.744Z,4.97
2018-07-28T22:01:44.179Z,3.70
2018-07-28T22:04:21.618Z,2.70
2018-07-28T22:06:50.546Z,2.63
2018-07-28T22:09:19.291Z,2.53
2018-07-28T22:11:48.044Z,2.60
2018-07-28T22:14:16.840Z,2.60
2018-07-28T22:16:45.811Z,2.37
2018-07-28T22:19:14.808Z,5.10
2018-07-28T22:21:43.659Z,3.60
2018-07-28T22:24:12.502Z,4.47
2018-07-28T22:26:42.701Z,2.83
2018-07-28T22:29:11.466Z,3.93
2018-07-28T22:31:40.466Z,2.90
2018-07-28T22:34:09.313Z,2.57
2018-07-28T22:36:38.363Z,3.43
2018-07-28T22:39:08.631Z,2.27
2018-07-28T22:41:37.457Z,2.87
2018-07-28T22:44:06.005Z,2.10
2018-07-28T22:46:34.787Z,2.87
2018-07-28T22:49:03.533Z,2.20
2018-07-28T22:51:32.433Z,2.53
2018-07-28T22:54:01.298Z,3.07
2018-07-28T22:56:30.135Z,2.83
2018-07-28T22:58:59.108Z,3.17
2018-07-28T23:01:28.078Z,3.00
2018-07-28T23:03:57.003Z,2.60
2018-07-28T23:06:25.779Z,3.13
2018-07-28T23:08:54.642Z,2.90
2018-07-28T23:11:23.445Z,2.60
2018-07-28T23:13:52.496Z,2.87
2018-07-28T23:16:21.291Z,2.47
2018-07-28T23:18:50.075Z,2.20
2018-07-28T23:21:18.987Z,2.70
2018-07-28T23:23:47.757Z,2.90
2018-07-28T23:26:16.706Z,4.10
2018-07-28T23:28:45.707Z,2.57
2018-07-28T23:31:15.727Z,2.30
2018-07-28T23:33:44.615Z,2.50
2018-07-28T23:36:13.438Z,4.63
2018-07-28T23:38:42.311Z,2.20
2018-07-28T23:41:11.271Z,2.27
2018-07-28T23:43:40.098Z,2.23
2018-07-28T23:46:09.156Z,2.33
2018-07-28T23:48:37.909Z,2.37
2018-07-28T23:51:06.942Z,2.30
2018-07-28T23:53:35.752Z,2.23
2018-07-28T23:56:04.797Z,2.63
2018-07-28T23:58:33.643Z,4.40
